createdAt,value
2022-08-28T00:00:29.631Z,2.29
2022-08-28T00:01:32.421Z,4.17
2022-08-28T00:02:35.282Z,2.67
2022-08-28T00:03:38.474Z,1.00
2022-08-28T00:04:42.072Z,1.00
2022-08-28T00:05:45.040Z,1.00
2022-08-28T00:06:50.525Z,1.00
2022-08-28T00:07:53.472Z,0.50
2022-08-28T00:08:56.380Z,-0.14
2022-08-28T00:09:59.252Z,0.00
2022-08-28T00:11:02.231Z,0.00
2022-08-28T00:12:05.168Z,0.43
2022-08-28T00:13:10.639Z,0.43
2022-08-28T00:14:16.329Z,1.00
2022-08-28T00:15:18.941Z,1.50
2022-08-28T00:16:21.465Z,2.00
2022-08-28T00:17:28.063Z,1.14
2022-08-28T00:18:30.766Z,1.00
2022-08-28T00:19:37.911Z,1.00
2022-08-28T00:20:37.293Z,0.57
2022-08-28T00:21:39.957Z,0.00
2022-08-28T00:22:42.508Z,0.00
2022-08-28T00:23:45.186Z,0.33
2022-08-28T00:24:47.766Z,1.00
2022-08-28T00:25:53.480Z,1.00
2022-08-28T00:26:59.256Z,0.00
2022-08-28T00:28:08.403Z,1.00
2022-08-28T00:29:05.779Z,0.37
2022-08-28T00:30:08.444Z,0.33
2022-08-28T00:31:14.085Z,0.33
2022-08-28T00:32:16.867Z,1.00
2022-08-28T00:33:19.439Z,1.00
2022-08-28T00:34:28.503Z,1.00
2022-08-28T00:35:28.564Z,1.00
2022-08-28T00:36:31.241Z,1.00
2022-08-28T00:37:33.928Z,1.00
2022-08-28T00:38:36.568Z,1.00
2022-08-28T00:39:39.244Z,1.00
2022-08-28T00:40:43.225Z,1.00
2022-08-28T00:41:47.008Z,1.00
2022-08-28T00:42:49.720Z,0.57
2022-08-28T00:43:52.459Z,0.67
2022-08-28T00:44:55.106Z,0.50
2022-08-28T00:45:57.781Z,1.00
2022-08-28T00:47:00.498Z,1.00
2022-08-28T00:48:03.058Z,0.67
2022-08-28T00:49:05.596Z,0.83
2022-08-28T00:50:08.225Z,1.00
2022-08-28T00:51:10.792Z,0.67
2022-08-28T00:52:13.509Z,0.33
2022-08-28T00:53:16.077Z,0.67
2022-08-28T00:54:18.765Z,0.00
2022-08-28T00:55:21.406Z,0.00
2022-08-28T00:56:24.030Z,0.00
2022-08-28T00:57:27.122Z,0.00
2022-08-28T00:58:30.529Z,0.00
2022-08-28T00:59:33.211Z,0.00
2022-08-28T01:00:35.926Z,0.00
2022-08-28T01:01:38.668Z,0.00
2022-08-28T01:02:41.511Z,0.00
2022-08-28T01:03:44.265Z,0.00
2022-08-28T01:04:46.971Z,0.00
2022-08-28T01:05:49.633Z,0.00
2022-08-28T01:06:52.333Z,0.00
2022-08-28T01:07:56.028Z,0.00
2022-08-28T01:08:59.052Z,0.00
2022-08-28T01:10:01.846Z,0.00
2022-08-28T01:11:04.474Z,0.00
2022-08-28T01:12:07.176Z,0.00
2022-08-28T01:13:09.905Z,0.00
2022-08-28T01:14:12.543Z,0.00
2022-08-28T01:15:15.130Z,0.00
2022-08-28T01:16:17.783Z,0.00
2022-08-28T01:17:20.380Z,0.00
2022-08-28T01:18:22.952Z,0.00
2022-08-28T01:19:25.475Z,0.00
2022-08-28T01:20:28.011Z,0.00
2022-08-28T01:21:30.712Z,0.00
2022-08-28T01:22:33.420Z,0.00
2022-08-28T01:23:36.042Z,0.00
2022-08-28T01:24:38.793Z,0.00
2022-08-28T01:25:41.507Z,0.00
2022-08-28T01:26:44.148Z,0.00
2022-08-28T01:27:46.858Z,0.00
2022-08-28T01:28:49.544Z,0.00
2022-08-28T01:29:52.234Z,0.00
2022-08-28T01:30:54.900Z,0.00
2022-08-28T01:31:57.545Z,0.00
2022-08-28T01:33:00.210Z,0.00
2022-08-28T01:34:02.778Z,0.00
2022-08-28T01:35:05.495Z,0.00
2022-08-28T01:36:07.999Z,0.00
2022-08-28T01:37:10.569Z,0.00
2022-08-28T01:38:13.202Z,0.00
2022-08-28T01:39:17.121Z,0.00
2022-08-28T01:40:19.920Z,0.00
2022-08-28T01:41:22.693Z,0.00
2022-08-28T01:42:25.482Z,0.00
2022-08-28T01:43:28.098Z,0.00
2022-08-28T01:44:30.627Z,0.00
2022-08-28T01:45:33.162Z,0.00
2022-08-28T01:46:35.756Z,0.00
2022-08-28T01:47:38.674Z,0.00
2022-08-28T01:48:41.587Z,0.00
2022-08-28T01:49:44.461Z,0.00
2022-08-28T01:50:47.249Z,0.00
2022-08-28T01:51:50.088Z,0.00
2022-08-28T01:52:54.146Z,0.00
2022-08-28T01:53:56.958Z,0.00
2022-08-28T01:54:59.770Z,0.00
2022-08-28T01:56:02.684Z,0.00
2022-08-28T01:57:06.811Z,0.00
2022-08-28T01:58:09.675Z,0.00
2022-08-28T01:59:12.495Z,0.00
2022-08-28T02:00:15.357Z,0.00
2022-08-28T02:01:17.916Z,0.00
2022-08-28T02:02:20.595Z,0.00
2022-08-28T02:03:23.105Z,0.00
2022-08-28T02:04:31.694Z,0.00
2022-08-28T02:05:29.453Z,0.00
2022-08-28T02:06:32.025Z,0.00
2022-08-28T02:07:34.663Z,0.00
2022-08-28T02:08:37.440Z,0.00
2022-08-28T02:09:40.240Z,0.00
2022-08-28T02:10:42.980Z,0.00
2022-08-28T02:11:46.907Z,0.00
2022-08-28T02:12:49.754Z,0.00
2022-08-28T02:13:52.583Z,0.00
2022-08-28T02:14:56.711Z,0.00
2022-08-28T02:15:59.503Z,0.00
2022-08-28T02:17:02.313Z,0.00
2022-08-28T02:18:05.197Z,0.00
2022-08-28T02:19:08.020Z,0.00
2022-08-28T02:20:10.605Z,0.00
2022-08-28T02:21:13.113Z,0.00
2022-08-28T02:22:15.684Z,0.00
2022-08-28T02:23:18.281Z,0.00
2022-08-28T02:24:20.922Z,0.00
2022-08-28T02:25:23.471Z,0.00
2022-08-28T02:26:25.979Z,0.00
2022-08-28T02:27:28.499Z,0.00
2022-08-28T02:28:31.313Z,0.00
2022-08-28T02:29:33.828Z,0.00
2022-08-28T02:30:36.436Z,0.00
2022-08-28T02:31:39.341Z,0.00
2022-08-28T02:32:42.180Z,0.00
2022-08-28T02:33:46.275Z,0.00
2022-08-28T02:34:49.036Z,0.00
2022-08-28T02:35:51.912Z,0.00
2022-08-28T02:36:54.680Z,0.00
2022-08-28T02:37:57.201Z,0.00
2022-08-28T02:39:01.097Z,0.00
2022-08-28T02:40:03.766Z,0.00
2022-08-28T02:41:06.414Z,0.00
2022-08-28T02:42:08.988Z,0.00
2022-08-28T02:43:11.542Z,0.00
2022-08-28T02:44:14.197Z,0.00
2022-08-28T02:45:16.796Z,0.00
2022-08-28T02:46:19.472Z,0.00
2022-08-28T02:47:21.987Z,0.00
2022-08-28T02:48:24.604Z,0.00
2022-08-28T02:49:31.271Z,0.00
2022-08-28T02:50:31.141Z,0.00
2022-08-28T02:51:33.781Z,0.00
2022-08-28T02:52:36.454Z,0.00
2022-08-28T02:53:39.155Z,0.00
2022-08-28T02:54:41.855Z,0.00
2022-08-28T02:55:44.493Z,0.00
2022-08-28T02:56:47.109Z,0.00
2022-08-28T02:57:49.738Z,0.00
2022-08-28T02:58:52.312Z,0.00
2022-08-28T02:59:56.450Z,0.00
2022-08-28T03:00:59.342Z,0.00
2022-08-28T03:02:02.174Z,0.00
2022-08-28T03:03:04.944Z,0.00
2022-08-28T03:04:07.743Z,0.00
2022-08-28T03:05:10.551Z,0.00
2022-08-28T03:06:13.360Z,0.00
2022-08-28T03:07:16.162Z,0.00
2022-08-28T03:08:19.003Z,0.00
2022-08-28T03:09:21.600Z,0.00
2022-08-28T03:10:24.418Z,0.00
2022-08-28T03:11:27.012Z,0.00
2022-08-28T03:12:29.657Z,0.00
2022-08-28T03:13:32.357Z,0.00
2022-08-28T03:14:35.013Z,0.00
2022-08-28T03:15:37.701Z,0.00
2022-08-28T03:16:40.427Z,0.00
2022-08-28T03:17:43.141Z,0.00
2022-08-28T03:18:45.850Z,0.00
2022-08-28T03:19:48.480Z,0.00
2022-08-28T03:20:51.124Z,0.00
2022-08-28T03:21:53.749Z,0.00
2022-08-28T03:22:56.528Z,0.00
2022-08-28T03:23:59.603Z,0.00
2022-08-28T03:25:02.383Z,0.00
2022-08-28T03:26:05.223Z,0.00
2022-08-28T03:27:08.085Z,0.00
2022-08-28T03:28:11.011Z,0.00
2022-08-28T03:29:13.925Z,0.00
2022-08-28T03:30:16.949Z,0.00
2022-08-28T03:31:19.773Z,0.00
2022-08-28T03:32:22.781Z,0.00
2022-08-28T03:33:25.327Z,0.00
2022-08-28T03:34:28.138Z,0.00
2022-08-28T03:35:30.818Z,0.00
2022-08-28T03:36:33.643Z,0.00
2022-08-28T03:37:36.313Z,0.00
2022-08-28T03:38:39.003Z,0.00
2022-08-28T03:39:41.888Z,0.00
2022-08-28T03:40:44.588Z,0.00
2022-08-28T03:41:48.812Z,0.00
2022-08-28T03:42:53.620Z,0.00
2022-08-28T03:43:55.848Z,0.00
2022-08-28T03:44:58.752Z,0.00
2022-08-28T03:46:01.614Z,0.00
2022-08-28T03:47:04.720Z,0.00
2022-08-28T03:48:08.329Z,0.00
2022-08-28T03:49:12.168Z,0.00
2022-08-28T03:50:14.942Z,0.00
2022-08-28T03:51:17.686Z,0.00
2022-08-28T03:52:21.002Z,0.00
2022-08-28T03:53:23.588Z,0.00
2022-08-28T03:54:26.303Z,0.00
2022-08-28T03:55:28.804Z,0.00
2022-08-28T03:56:31.331Z,0.00
2022-08-28T03:57:33.885Z,0.00
2022-08-28T03:58:36.469Z,0.00
2022-08-28T03:59:39.124Z,0.00
2022-08-28T04:00:41.883Z,0.00
2022-08-28T04:01:46.014Z,0.00
2022-08-28T04:02:48.858Z,0.00
2022-08-28T04:03:51.644Z,0.00
2022-08-28T04:04:54.463Z,0.00
2022-08-28T04:05:57.337Z,0.00
2022-08-28T04:07:00.116Z,0.00
2022-08-28T04:08:03.089Z,0.00
2022-08-28T04:09:06.739Z,0.00
2022-08-28T04:10:09.495Z,0.00
2022-08-28T04:11:12.057Z,0.00
2022-08-28T04:12:14.589Z,0.00
2022-08-28T04:13:17.109Z,0.00
2022-08-28T04:14:19.626Z,0.00
2022-08-28T04:15:22.147Z,0.00
2022-08-28T04:16:24.782Z,0.00
2022-08-28T04:17:27.336Z,0.00
2022-08-28T04:18:29.955Z,0.00
2022-08-28T04:19:32.527Z,0.00
2022-08-28T04:20:35.056Z,0.00
2022-08-28T04:21:37.652Z,0.00
2022-08-28T04:22:40.522Z,0.00
2022-08-28T04:23:43.421Z,0.00
2022-08-28T04:24:46.306Z,0.00
2022-08-28T04:25:49.181Z,0.00
2022-08-28T04:26:52.083Z,0.00
2022-08-28T04:27:54.990Z,0.00
2022-08-28T04:28:57.881Z,0.00
2022-08-28T04:30:00.771Z,0.00
2022-08-28T04:31:03.532Z,0.00
2022-08-28T04:32:06.472Z,0.00
2022-08-28T04:33:09.446Z,0.00
2022-08-28T04:34:12.492Z,0.00
2022-08-28T04:35:15.312Z,0.00
2022-08-28T04:36:18.099Z,0.00
2022-08-28T04:37:20.596Z,0.00
2022-08-28T04:38:24.669Z,0.00
2022-08-28T04:39:27.292Z,0.00
2022-08-28T04:40:30.128Z,0.00
2022-08-28T04:41:32.819Z,0.00
2022-08-28T04:42:35.466Z,0.00
2022-08-28T04:43:38.174Z,0.00
2022-08-28T04:44:41.302Z,0.00
2022-08-28T04:45:44.170Z,0.00
2022-08-28T04:46:47.320Z,0.00
2022-08-28T04:47:50.952Z,0.00
2022-08-28T04:48:53.723Z,0.00
2022-08-28T04:49:56.370Z,0.00
2022-08-28T04:50:58.918Z,0.00
2022-08-28T04:52:01.453Z,0.00
2022-08-28T04:53:04.017Z,0.00
2022-08-28T04:54:06.563Z,0.00
2022-08-28T04:55:09.121Z,0.00
2022-08-28T04:56:11.867Z,0.00
2022-08-28T04:57:14.667Z,0.00
2022-08-28T04:58:17.402Z,0.00
2022-08-28T04:59:21.120Z,0.00
2022-08-28T05:00:24.087Z,0.00
2022-08-28T05:01:26.689Z,0.00
2022-08-28T05:02:29.331Z,0.00
2022-08-28T05:03:32.080Z,0.00
2022-08-28T05:04:34.715Z,0.00
2022-08-28T05:05:37.492Z,0.00
2022-08-28T05:06:40.203Z,0.00
2022-08-28T05:07:42.867Z,0.00
2022-08-28T05:08:46.749Z,0.00
2022-08-28T05:09:49.474Z,0.00
2022-08-28T05:10:52.243Z,0.00
2022-08-28T05:11:54.817Z,0.00
2022-08-28T05:12:57.445Z,0.00
2022-08-28T05:14:00.183Z,0.00
2022-08-28T05:15:03.016Z,0.00
2022-08-28T05:16:06.077Z,0.00
2022-08-28T05:17:08.951Z,0.00
2022-08-28T05:18:11.908Z,0.00
2022-08-28T05:19:14.872Z,0.00
2022-08-28T05:20:17.676Z,0.00
2022-08-28T05:21:20.352Z,0.00
2022-08-28T05:22:23.248Z,0.00
2022-08-28T05:23:25.852Z,0.00
2022-08-28T05:24:28.711Z,0.00
2022-08-28T05:25:31.233Z,0.00
2022-08-28T05:26:33.890Z,0.00
2022-08-28T05:27:37.588Z,0.00
2022-08-28T05:28:40.186Z,0.00
2022-08-28T05:29:43.159Z,0.00
2022-08-28T05:30:46.019Z,0.00
2022-08-28T05:31:48.928Z,0.00
2022-08-28T05:32:51.757Z,0.00
2022-08-28T05:33:54.599Z,0.00
2022-08-28T05:34:57.483Z,0.00
2022-08-28T05:36:00.468Z,0.00
2022-08-28T05:37:03.482Z,0.00
2022-08-28T05:38:06.326Z,0.00
2022-08-28T05:39:09.272Z,0.00
2022-08-28T05:40:12.065Z,0.00
2022-08-28T05:41:14.629Z,0.00
2022-08-28T05:42:17.562Z,0.00
2022-08-28T05:43:20.320Z,0.00
2022-08-28T05:44:23.190Z,0.00
2022-08-28T05:45:25.674Z,0.00
2022-08-28T05:46:28.397Z,0.00
2022-08-28T05:47:30.974Z,0.00
2022-08-28T05:48:35.211Z,0.00
2022-08-28T05:49:37.442Z,0.00
2022-08-28T05:50:47.191Z,0.00
2022-08-28T05:51:44.349Z,0.00
2022-08-28T05:52:47.252Z,0.00
2022-08-28T05:53:50.089Z,0.00
2022-08-28T05:54:53.019Z,0.00
2022-08-28T05:55:55.885Z,0.00
2022-08-28T05:56:58.694Z,0.00
2022-08-28T05:58:01.572Z,0.00
2022-08-28T05:59:04.278Z,0.00
2022-08-28T06:00:06.834Z,0.00
2022-08-28T06:01:09.424Z,0.00
2022-08-28T06:02:12.002Z,0.00
2022-08-28T06:03:14.797Z,0.00
2022-08-28T06:04:17.460Z,0.00
2022-08-28T06:05:20.081Z,0.00
2022-08-28T06:06:22.607Z,0.00
2022-08-28T06:07:25.137Z,0.00
2022-08-28T06:08:27.734Z,0.00
2022-08-28T06:09:30.378Z,0.00
2022-08-28T06:10:32.999Z,0.00
2022-08-28T06:11:36.613Z,0.00
2022-08-28T06:12:40.412Z,0.00
2022-08-28T06:13:43.438Z,0.00
2022-08-28T06:14:47.256Z,0.00
2022-08-28T06:15:50.109Z,0.00
2022-08-28T06:16:53.009Z,0.00
2022-08-28T06:17:55.918Z,0.00
2022-08-28T06:18:58.846Z,0.00
2022-08-28T06:20:04.253Z,0.00
2022-08-28T06:21:06.950Z,0.00
2022-08-28T06:22:09.613Z,0.00
2022-08-28T06:23:12.309Z,0.00
2022-08-28T06:24:14.921Z,0.00
2022-08-28T06:25:17.498Z,0.00
2022-08-28T06:26:20.000Z,0.00
2022-08-28T06:27:22.486Z,0.00
2022-08-28T06:28:25.249Z,0.00
2022-08-28T06:29:27.808Z,0.00
2022-08-28T06:30:30.669Z,0.00
2022-08-28T06:31:48.386Z,0.00
2022-08-28T06:32:51.103Z,0.00
2022-08-28T06:33:55.203Z,0.00
2022-08-28T06:34:58.185Z,0.00
2022-08-28T06:36:01.121Z,0.00
2022-08-28T06:37:03.771Z,0.00
2022-08-28T06:38:06.663Z,0.00
2022-08-28T06:39:10.565Z,0.00
2022-08-28T06:40:13.519Z,0.00
2022-08-28T06:41:16.616Z,0.00
2022-08-28T06:42:19.418Z,0.00
2022-08-28T06:43:22.266Z,0.00
2022-08-28T06:44:25.132Z,0.00
2022-08-28T06:45:27.790Z,0.00
2022-08-28T06:46:30.442Z,0.00
2022-08-28T06:47:33.225Z,0.00
2022-08-28T06:48:35.846Z,0.00
2022-08-28T06:49:38.470Z,0.00
2022-08-28T06:50:41.173Z,0.00
2022-08-28T06:51:46.784Z,0.00
2022-08-28T06:52:49.417Z,0.00
2022-08-28T06:53:52.103Z,0.00
2022-08-28T06:54:55.888Z,0.00
2022-08-28T06:55:58.547Z,0.00
2022-08-28T06:57:01.208Z,0.00
2022-08-28T06:58:03.850Z,0.00
2022-08-28T06:59:12.341Z,0.00
2022-08-28T07:00:15.143Z,0.00
2022-08-28T07:01:20.516Z,0.00
2022-08-28T07:02:23.553Z,0.00
2022-08-28T07:03:27.354Z,0.00
2022-08-28T07:04:30.109Z,0.00
2022-08-28T07:05:32.738Z,0.00
2022-08-28T07:06:35.425Z,0.00
2022-08-28T07:08:56.764Z,0.00
2022-08-28T07:09:59.746Z,0.00
2022-08-28T07:11:02.431Z,0.00
2022-08-28T07:12:05.305Z,0.00
2022-08-28T07:13:08.969Z,0.00
2022-08-28T07:14:11.646Z,0.00
2022-08-28T07:15:14.569Z,0.00
2022-08-28T07:16:17.510Z,0.00
2022-08-28T07:17:20.185Z,0.00
2022-08-28T07:18:23.015Z,0.00
2022-08-28T07:19:25.607Z,0.00
2022-08-28T07:20:28.411Z,0.00
2022-08-28T07:21:31.025Z,0.00
2022-08-28T07:22:33.775Z,0.00
2022-08-28T07:23:36.432Z,0.00
2022-08-28T07:24:39.198Z,0.00
2022-08-28T07:25:42.146Z,0.00
2022-08-28T07:26:44.895Z,0.00
2022-08-28T07:27:47.567Z,0.00
2022-08-28T07:28:50.174Z,0.00
2022-08-28T07:29:52.827Z,0.00
2022-08-28T07:30:55.507Z,0.00
2022-08-28T07:31:58.157Z,0.00
2022-08-28T07:33:00.801Z,0.00
2022-08-28T07:34:03.470Z,0.00
2022-08-28T07:35:06.113Z,0.00
2022-08-28T07:36:08.747Z,0.00
2022-08-28T07:37:15.350Z,0.00
2022-08-28T07:38:16.487Z,0.00
2022-08-28T07:39:19.258Z,0.00
2022-08-28T07:40:21.995Z,0.00
2022-08-28T07:41:24.688Z,0.00
2022-08-28T07:42:27.359Z,0.00
2022-08-28T07:43:31.150Z,0.00
2022-08-28T07:44:33.785Z,0.00
2022-08-28T07:45:36.551Z,0.00
2022-08-28T07:46:42.233Z,0.00
2022-08-28T07:47:44.911Z,0.00
2022-08-28T07:48:47.600Z,0.00
2022-08-28T07:49:50.223Z,0.00
2022-08-28T07:50:52.802Z,0.00
2022-08-28T07:51:58.552Z,0.00
2022-08-28T07:53:01.199Z,0.00
2022-08-28T07:54:03.746Z,0.00
2022-08-28T07:55:06.325Z,0.00
2022-08-28T07:56:09.057Z,0.00
2022-08-28T07:57:11.836Z,0.00
2022-08-28T07:58:17.520Z,0.00
2022-08-28T07:59:22.891Z,0.00
2022-08-28T08:00:25.799Z,0.00
2022-08-28T08:01:28.429Z,0.00
2022-08-28T08:02:32.279Z,0.00
2022-08-28T08:03:35.038Z,0.00
2022-08-28T08:04:37.766Z,0.00
2022-08-28T08:05:43.478Z,0.00
2022-08-28T08:06:49.112Z,0.00
2022-08-28T08:07:52.058Z,0.00
2022-08-28T08:08:54.902Z,0.00
2022-08-28T08:09:57.917Z,0.00
2022-08-28T08:11:00.852Z,0.00
2022-08-28T08:12:03.765Z,0.33
2022-08-28T08:13:06.914Z,0.14
2022-08-28T08:14:13.276Z,0.00
2022-08-28T08:15:16.114Z,0.50
2022-08-28T08:16:19.082Z,0.43
2022-08-28T08:17:21.958Z,0.67
2022-08-28T08:18:24.845Z,0.43
2022-08-28T08:19:27.424Z,1.00
2022-08-28T08:20:30.048Z,1.33
2022-08-28T08:21:32.749Z,2.00
2022-08-28T08:22:35.406Z,1.67
2022-08-28T08:23:41.038Z,1.00
2022-08-28T08:24:46.757Z,1.25
2022-08-28T08:25:49.734Z,2.00
2022-08-28T08:27:00.354Z,2.00
2022-08-28T08:27:56.620Z,0.86
2022-08-28T08:28:59.547Z,0.00
2022-08-28T08:30:02.432Z,1.00
2022-08-28T08:31:05.233Z,1.00
2022-08-28T08:32:10.765Z,1.00
2022-08-28T08:33:13.704Z,1.00
2022-08-28T08:34:16.602Z,1.33
2022-08-28T08:35:21.970Z,1.57
2022-08-28T08:36:27.996Z,1.50
2022-08-28T08:37:30.622Z,1.00
2022-08-28T08:38:34.506Z,0.50
2022-08-28T08:39:37.184Z,0.33
2022-08-28T08:40:42.899Z,1.00
2022-08-28T08:41:45.982Z,1.00
2022-08-28T08:42:48.896Z,0.57
2022-08-28T08:43:51.837Z,0.43
2022-08-28T08:44:57.510Z,1.00
2022-08-28T08:46:00.448Z,0.50
2022-08-28T08:47:03.439Z,0.00
2022-08-28T08:48:06.353Z,0.00
2022-08-28T08:49:09.375Z,0.00
2022-08-28T08:50:12.451Z,0.00
2022-08-28T08:51:15.331Z,0.00
2022-08-28T08:52:18.308Z,0.00
2022-08-28T08:53:21.164Z,0.00
2022-08-28T08:54:24.028Z,0.33
2022-08-28T08:55:26.647Z,0.57
2022-08-28T08:56:34.908Z,0.00
2022-08-28T08:57:33.325Z,0.00
2022-08-28T08:58:36.001Z,0.00
2022-08-28T08:59:38.714Z,0.00
2022-08-28T09:00:41.357Z,0.43
2022-08-28T09:01:44.526Z,0.50
2022-08-28T09:02:50.418Z,0.00
2022-08-28T09:03:53.770Z,0.00
2022-08-28T09:04:56.839Z,0.00
2022-08-28T09:05:59.512Z,0.33
2022-08-28T09:07:05.260Z,0.67
2022-08-28T09:08:08.128Z,0.50
2022-08-28T09:09:10.783Z,0.33
2022-08-28T09:10:13.450Z,0.00
2022-08-28T09:11:16.093Z,0.00
2022-08-28T09:12:18.761Z,0.00
2022-08-28T09:13:24.405Z,0.00
2022-08-28T09:14:29.569Z,0.00
2022-08-28T09:15:30.869Z,0.00
2022-08-28T09:16:33.572Z,0.00
2022-08-28T09:17:36.283Z,0.00
2022-08-28T09:18:39.082Z,0.00
2022-08-28T09:19:41.684Z,0.00
2022-08-28T09:20:56.609Z,0.00
2022-08-28T09:21:59.228Z,0.00
2022-08-28T09:23:05.018Z,0.00
2022-08-28T09:24:07.337Z,0.00
2022-08-28T09:25:09.685Z,0.00
2022-08-28T09:26:12.609Z,0.00
2022-08-28T09:27:15.606Z,0.00
2022-08-28T09:28:18.161Z,0.00
2022-08-28T09:29:21.132Z,0.33
2022-08-28T09:30:29.619Z,0.57
2022-08-28T09:31:32.248Z,0.00
2022-08-28T09:32:34.779Z,0.00
2022-08-28T09:33:37.299Z,0.00
2022-08-28T09:34:40.009Z,0.00
2022-08-28T09:35:42.699Z,0.50
2022-08-28T09:36:45.631Z,0.00
2022-08-28T09:37:48.522Z,0.00
2022-08-28T09:38:51.391Z,0.00
2022-08-28T09:39:57.330Z,0.00
2022-08-28T09:41:00.197Z,0.00
2022-08-28T09:42:03.405Z,0.00
2022-08-28T09:43:06.297Z,0.00
2022-08-28T09:44:09.197Z,0.00
2022-08-28T09:45:12.105Z,0.00
2022-08-28T09:46:17.954Z,0.00
2022-08-28T09:47:23.309Z,0.00
2022-08-28T09:48:26.327Z,0.00
2022-08-28T09:49:28.972Z,0.00
2022-08-28T09:50:31.822Z,0.00
2022-08-28T09:51:37.539Z,0.00
2022-08-28T09:52:45.997Z,0.50
2022-08-28T09:53:48.935Z,0.25
2022-08-28T09:54:51.843Z,0.00
2022-08-28T09:55:54.949Z,0.00
2022-08-28T09:56:57.833Z,0.00
2022-08-28T09:58:00.701Z,0.00
2022-08-28T09:59:03.596Z,0.00
2022-08-28T10:00:06.487Z,0.17
2022-08-28T10:01:09.481Z,0.67
2022-08-28T10:02:14.976Z,0.00
2022-08-28T10:03:20.413Z,0.00
2022-08-28T10:04:23.363Z,0.00
2022-08-28T10:05:26.900Z,0.33
2022-08-28T10:06:30.282Z,0.50
2022-08-28T10:07:41.440Z,0.00
2022-08-28T10:08:44.102Z,0.00
2022-08-28T10:09:47.835Z,0.33
2022-08-28T10:10:51.124Z,1.00
2022-08-28T10:11:54.339Z,0.67
2022-08-28T10:12:57.226Z,0.00
2022-08-28T10:14:00.189Z,0.00
2022-08-28T10:15:03.069Z,0.00
2022-08-28T10:16:06.016Z,0.00
2022-08-28T10:17:09.092Z,0.00
2022-08-28T10:18:12.061Z,0.00
2022-08-28T10:19:17.480Z,0.00
2022-08-28T10:20:23.214Z,0.00
2022-08-28T10:21:25.778Z,0.00
2022-08-28T10:22:28.721Z,0.33
2022-08-28T10:23:37.458Z,0.67
2022-08-28T10:24:49.049Z,0.00
2022-08-28T10:25:51.976Z,0.00
2022-08-28T10:26:54.944Z,0.00
2022-08-28T10:27:57.747Z,0.00
2022-08-28T10:29:01.034Z,0.00
2022-08-28T10:30:07.754Z,0.00
2022-08-28T10:31:07.840Z,0.00
2022-08-28T10:32:10.709Z,0.00
2022-08-28T10:33:13.629Z,0.00
2022-08-28T10:34:16.469Z,0.00
2022-08-28T10:35:19.362Z,0.00
2022-08-28T10:36:26.418Z,0.00
2022-08-28T10:37:26.029Z,0.00
2022-08-28T10:38:28.986Z,0.00
2022-08-28T10:39:31.638Z,0.00
2022-08-28T10:40:34.535Z,0.00
2022-08-28T10:41:37.247Z,0.00
2022-08-28T10:42:39.962Z,0.00
2022-08-28T10:43:42.747Z,0.00
2022-08-28T10:44:45.393Z,0.00
2022-08-28T10:45:51.063Z,0.00
2022-08-28T10:46:56.798Z,0.00
2022-08-28T10:47:59.696Z,0.00
2022-08-28T10:49:02.650Z,0.00
2022-08-28T10:50:05.528Z,0.00
2022-08-28T10:51:08.428Z,0.00
2022-08-28T10:52:11.483Z,0.00
2022-08-28T10:53:16.891Z,0.00
2022-08-28T10:54:19.942Z,0.00
2022-08-28T10:55:22.846Z,0.00
2022-08-28T10:56:25.747Z,0.00
2022-08-28T10:57:31.091Z,0.00
2022-08-28T10:58:45.948Z,0.00
2022-08-28T10:59:48.839Z,0.00
2022-08-28T11:00:51.712Z,0.00
2022-08-28T11:01:54.732Z,0.00
2022-08-28T11:02:57.658Z,0.00
2022-08-28T11:04:00.546Z,0.00
2022-08-28T11:05:03.446Z,0.00
2022-08-28T11:06:06.102Z,0.00
2022-08-28T11:07:09.204Z,0.00
2022-08-28T11:08:14.987Z,0.00
2022-08-28T11:09:17.812Z,0.00
2022-08-28T11:10:21.566Z,0.00
2022-08-28T11:11:24.065Z,0.00
2022-08-28T11:12:26.589Z,0.00
2022-08-28T11:13:29.127Z,0.00
2022-08-28T11:14:32.947Z,0.00
2022-08-28T11:15:37.438Z,0.00
2022-08-28T11:16:40.350Z,0.00
2022-08-28T11:17:43.110Z,0.00
2022-08-28T11:18:45.743Z,0.00
2022-08-28T11:19:52.148Z,0.67
2022-08-28T11:20:52.146Z,0.00
2022-08-28T11:21:57.717Z,0.00
2022-08-28T11:23:03.773Z,0.00
2022-08-28T11:24:07.610Z,0.00
2022-08-28T11:25:10.697Z,0.00
2022-08-28T11:26:13.559Z,0.00
2022-08-28T11:27:16.349Z,0.00
2022-08-28T11:28:19.019Z,0.00
2022-08-28T11:29:24.664Z,0.00
2022-08-28T11:30:27.239Z,0.00
2022-08-28T11:31:29.951Z,0.00
2022-08-28T11:32:35.353Z,0.00
2022-08-28T11:33:40.706Z,0.00
2022-08-28T11:34:43.356Z,0.00
2022-08-28T11:35:46.063Z,0.00
2022-08-28T11:36:51.351Z,0.00
2022-08-28T11:37:54.010Z,0.00
2022-08-28T11:38:56.652Z,0.00
2022-08-28T11:40:02.266Z,0.00
2022-08-28T11:41:04.993Z,0.00
2022-08-28T11:42:07.712Z,0.00
2022-08-28T11:43:10.406Z,0.00
2022-08-28T11:44:16.158Z,0.00
2022-08-28T11:45:18.858Z,0.00
2022-08-28T11:46:24.036Z,0.00
2022-08-28T11:47:27.883Z,0.00
2022-08-28T11:48:33.141Z,0.00
2022-08-28T11:49:35.756Z,0.00
2022-08-28T11:50:38.470Z,0.00
2022-08-28T11:51:41.189Z,0.00
2022-08-28T11:52:43.901Z,0.00
2022-08-28T11:53:47.817Z,0.00
2022-08-28T11:54:53.142Z,0.00
2022-08-28T11:55:56.051Z,0.00
2022-08-28T11:56:58.729Z,0.00
2022-08-28T11:59:01.929Z,0.00
2022-08-28T12:00:05.748Z,0.00
2022-08-28T12:01:08.446Z,0.00
2022-08-28T12:02:11.161Z,0.00
2022-08-28T12:03:14.229Z,0.00
2022-08-28T12:04:16.976Z,0.00
2022-08-28T12:05:19.533Z,0.00
2022-08-28T12:06:22.145Z,0.00
2022-08-28T12:07:24.760Z,0.00
2022-08-28T12:08:27.533Z,0.00
2022-08-28T12:09:30.102Z,0.00
2022-08-28T12:10:32.694Z,0.00
2022-08-28T12:11:35.384Z,0.00
2022-08-28T12:12:38.085Z,0.00
2022-08-28T12:13:40.858Z,0.00
2022-08-28T12:14:43.550Z,0.00
2022-08-28T12:15:46.242Z,0.00
2022-08-28T12:16:48.924Z,0.00
2022-08-28T12:17:51.602Z,0.00
2022-08-28T12:18:54.387Z,0.00
2022-08-28T12:19:56.953Z,0.00
2022-08-28T12:20:59.466Z,0.00
2022-08-28T12:22:02.019Z,0.00
2022-08-28T12:23:04.544Z,0.00
2022-08-28T12:24:09.756Z,0.00
2022-08-28T12:25:10.999Z,0.00
2022-08-28T12:26:13.823Z,0.00
2022-08-28T12:27:16.658Z,0.00
2022-08-28T12:28:19.451Z,0.00
2022-08-28T12:29:22.386Z,0.67
2022-08-28T12:30:26.600Z,0.00
2022-08-28T12:31:29.196Z,0.00
2022-08-28T12:32:32.126Z,0.00
2022-08-28T12:33:34.688Z,0.00
2022-08-28T12:34:37.666Z,0.00
2022-08-28T12:35:40.333Z,0.00
2022-08-28T12:36:43.026Z,0.00
2022-08-28T12:37:52.659Z,0.00
2022-08-28T12:38:49.799Z,0.00
2022-08-28T12:39:52.949Z,0.00
2022-08-28T12:40:55.908Z,0.00
2022-08-28T12:41:58.815Z,0.00
2022-08-28T12:43:01.744Z,0.00
2022-08-28T12:44:04.592Z,0.00
2022-08-28T12:45:07.675Z,0.00
2022-08-28T12:46:19.479Z,0.00
2022-08-28T12:47:14.655Z,0.00
2022-08-28T12:48:17.496Z,0.00
2022-08-28T12:49:20.349Z,0.00
2022-08-28T12:50:23.358Z,0.00
2022-08-28T12:51:26.168Z,0.00
2022-08-28T12:52:28.982Z,0.00
2022-08-28T12:53:31.567Z,0.00
2022-08-28T12:54:34.371Z,0.00
2022-08-28T12:55:37.110Z,0.00
2022-08-28T12:56:39.738Z,0.00
2022-08-28T12:57:42.412Z,0.00
2022-08-28T12:58:45.125Z,0.00
2022-08-28T12:59:48.062Z,0.00
2022-08-28T13:00:51.221Z,0.00
2022-08-28T13:01:54.264Z,0.00
2022-08-28T13:02:57.181Z,0.00
2022-08-28T13:04:00.904Z,0.00
2022-08-28T13:05:03.568Z,0.00
2022-08-28T13:06:06.261Z,0.00
2022-08-28T13:07:08.966Z,0.00
2022-08-28T13:08:11.656Z,0.00
2022-08-28T13:09:14.332Z,0.00
2022-08-28T13:10:17.024Z,0.00
2022-08-28T13:11:19.880Z,0.00
2022-08-28T13:12:22.568Z,0.00
2022-08-28T13:13:26.327Z,0.00
2022-08-28T13:14:28.902Z,0.00
2022-08-28T13:15:31.424Z,0.00
2022-08-28T13:16:34.247Z,0.00
2022-08-28T13:17:37.205Z,0.00
2022-08-28T13:18:39.890Z,0.00
2022-08-28T13:19:42.575Z,0.00
2022-08-28T13:20:45.261Z,0.00
2022-08-28T13:21:48.281Z,0.00
2022-08-28T13:22:51.148Z,0.00
2022-08-28T13:23:54.044Z,0.00
2022-08-28T13:24:56.992Z,0.00
2022-08-28T13:25:59.920Z,0.00
2022-08-28T13:27:02.863Z,0.00
2022-08-28T13:28:05.863Z,0.00
2022-08-28T13:29:08.872Z,0.00
2022-08-28T13:30:11.725Z,0.00
2022-08-28T13:31:14.415Z,0.00
2022-08-28T13:32:17.325Z,0.00
2022-08-28T13:33:20.253Z,0.00
2022-08-28T13:34:23.181Z,0.00
2022-08-28T13:35:25.962Z,0.00
2022-08-28T13:36:28.792Z,0.00
2022-08-28T13:37:31.474Z,0.00
2022-08-28T13:38:34.159Z,0.00
2022-08-28T13:39:36.851Z,0.00
2022-08-28T13:40:56.959Z,0.00
2022-08-28T13:41:43.503Z,0.00
2022-08-28T13:42:46.179Z,0.00
2022-08-28T13:43:48.809Z,0.00
2022-08-28T13:44:51.663Z,0.00
2022-08-28T13:45:54.371Z,0.00
2022-08-28T13:46:57.190Z,0.00
2022-08-28T13:47:59.951Z,0.00
2022-08-28T13:49:02.633Z,0.00
2022-08-28T13:50:05.324Z,0.00
2022-08-28T13:51:10.448Z,0.00
2022-08-28T13:52:11.846Z,0.00
2022-08-28T13:53:15.727Z,0.00
2022-08-28T13:54:18.512Z,0.00
2022-08-28T13:55:22.325Z,0.00
2022-08-28T13:56:26.216Z,0.00
2022-08-28T13:57:28.789Z,0.00
2022-08-28T13:58:31.316Z,0.00
2022-08-28T13:59:33.845Z,0.00
2022-08-28T14:00:36.713Z,0.00
2022-08-28T14:01:42.132Z,0.00
2022-08-28T14:02:43.266Z,0.00